Time;durP1;ratioP1;P1;durP2;ratioP2;P2;SDS_P1;SDS_P2;PMS_P1;PMS_P2;Temp;Humidity;BMP_temperature;BMP_pressure;BME280_temperature;BME280_humidity;BME280_pressure;Samples;Min_cycle;Max_cycle;Signal;HPM_P1;HPM_P2
2022/03/21 00:01:08;;;;;;;;;56.75;45.75;;;;;11.19;40.65;102212.94;4963486;28;45349;-56
2022/03/21 00:03:34;;;;;;;;;66.25;49.00;;;;;11.17;40.72;102212.03;4960266;28;45494;-53
2022/03/21 00:06:00;;;;;;;;;58.50;46.25;;;;;11.15;40.81;102213.81;4960010;28;46169;-53
2022/03/21 00:08:26;;;;;;;;;54.50;44.50;;;;;11.13;40.75;102207.63;4960389;28;45340;-53
2022/03/21 00:10:54;;;;;;;;;60.50;48.00;;;;;11.11;40.91;102209.41;4959960;28;45308;-54
2022/03/21 00:13:21;;;;;;;;;59.75;47.50;;;;;11.10;40.83;102212.91;4960156;28;45454;-51
2022/03/21 00:15:48;;;;;;;;;58.50;46.75;;;;;11.09;40.84;102211.13;4959798;28;45294;-53
2022/03/21 00:18:14;;;;;;;;;62.00;47.75;;;;;11.08;40.99;102217.25;4959940;28;45368;-53
2022/03/21 00:20:45;;;;;;;;;62.75;47.50;;;;;11.06;41.04;102218.13;4959835;28;45449;-51
2022/03/21 00:23:11;;;;;;;;;58.75;47.75;;;;;11.06;41.13;102217.25;4959951;28;45316;-53
2022/03/21 00:25:37;;;;;;;;;63.00;48.50;;;;;11.01;41.16;102209.31;4959659;28;46386;-54
2022/03/21 00:28:03;;;;;;;;;61.00;47.00;;;;;11.02;41.11;102216.34;4959948;28;45253;-53
2022/03/21 00:30:29;;;;;;;;;59.25;47.75;;;;;11.01;41.26;102214.56;4991903;28;45331;-53
2022/03/21 00:32:56;;;;;;;;;59.50;47.00;;;;;11.00;41.17;102217.19;4965059;28;45429;-53
2022/03/21 00:35:22;;;;;;;;;63.25;48.25;;;;;10.99;41.24;102213.69;4986553;28;46241;-52
2022/03/21 00:37:48;;;;;;;;;57.50;45.50;;;;;10.99;41.19;102215.44;4966230;28;45323;-52
2022/03/21 00:40:15;;;;;;;;;59.00;47.25;;;;;10.97;41.44;102211.91;4959780;28;45322;-52
2022/03/21 00:42:43;;;;;;;;;61.50;46.25;;;;;10.96;41.32;102213.66;4959811;28;45192;-52
2022/03/21 00:45:12;;;;;;;;;63.75;48.75;;;;;10.95;41.54;102216.28;4959649;28;46257;-53
2022/03/21 00:47:38;;;;;;;;;61.00;49.00;;;;;10.93;41.66;102212.75;4959507;28;45348;-53
2022/03/21 00:50:06;;;;;;;;;58.25;46.25;;;;;10.93;41.69;102212.75;4964860;28;45328;-54
2022/03/21 00:52:38;;;;;;;;;61.50;46.50;;;;;10.92;41.60;102209.25;4966557;28;45507;-53
2022/03/21 00:55:03;;;;;;;;;57.50;45.75;;;;;10.92;41.65;102214.50;4964515;28;46322;-53
2022/03/21 00:57:29;;;;;;;;;55.50;46.25;;;;;10.90;41.68;102200.47;4964194;28;45270;-52
2022/03/21 00:59:54;;;;;;;;;56.25;44.50;;;;;10.89;41.80;102204.84;4958453;27;45249;-54
2022/03/21 01:02:19;;;;;;;;;56.50;46.00;;;;;10.89;41.77;102204.84;4959568;28;45409;-53
2022/03/21 01:04:45;;;;;;;;;60.25;47.75;;;;;10.87;41.61;102205.72;4959590;28;45363;-51
2022/03/21 01:07:10;;;;;;;;;59.75;46.75;;;;;10.88;41.93;102205.72;4959316;28;45284;-54
2022/03/21 01:09:35;;;;;;;;;64.25;48.50;;;;;10.91;41.79;102212.75;4959310;28;45224;-54
2022/03/21 01:12:03;;;;;;;;;56.00;46.25;;;;;10.92;41.94;102208.34;4959494;28;45426;-54
2022/03/21 01:14:30;;;;;;;;;58.00;46.25;;;;;10.93;41.96;102215.38;4959416;28;45993;-54
2022/03/21 01:16:57;;;;;;;;;56.00;44.75;;;;;10.93;42.13;102212.75;4959087;28;45415;-50
2022/03/21 01:19:23;;;;;;;;;60.75;47.50;;;;;10.92;41.96;102211.88;4959576;28;45383;-54
2022/03/21 01:21:48;;;;;;;;;64.00;49.00;;;;;10.95;41.99;102213.66;4959391;28;45302;-53
2022/03/21 01:24:13;;;;;;;;;64.25;50.00;;;;;10.95;41.98;102217.16;4959222;28;45324;-52
2022/03/21 01:26:39;;;;;;;;;58.25;46.50;;;;;10.96;41.98;102218.06;4959284;28;45252;-53
2022/03/21 01:29:04;;;;;;;;;62.75;48.50;;;;;10.96;42.09;102205.78;4959534;28;45552;-52
2022/03/21 01:31:29;;;;;;;;;59.25;46.75;;;;;10.96;42.20;102211.03;4985678;28;45484;-52
2022/03/21 01:33:55;;;;;;;;;64.50;50.75;;;;;10.98;42.01;102211.03;4971431;28;45313;-54
2022/03/21 01:36:20;;;;;;;;;61.75;46.25;;;;;10.98;42.10;102217.19;4997315;28;45225;-53
2022/03/21 01:38:46;;;;;;;;;59.25;46.00;;;;;10.90;42.07;102203.09;4959420;28;45259;-52
2022/03/21 01:41:11;;;;;;;;;60.75;47.75;;;;;10.98;42.28;102217.19;4958869;28;45465;-51
2022/03/21 01:43:57;;;;;;;;;60.50;46.50;;;;;10.95;41.98;102206.63;4958964;28;45394;-52
2022/03/21 01:46:24;;;;;;;;;65.25;49.50;;;;;10.97;42.46;102204.91;4958756;28;45355;-52
2022/03/21 01:48:50;;;;;;;;;59.75;47.50;;;;;10.99;42.46;102204.91;4959319;28;45483;-52
2022/03/21 01:51:15;;;;;;;;;60.50;48.00;;;;;10.98;42.37;102206.69;4971790;28;45532;-54
2022/03/21 01:56:26;;;;;;;;;61.00;47.50;;;;;10.96;42.42;102204.91;4959197;28;45447;-53
2022/03/21 01:58:52;;;;;;;;;58.25;47.00;;;;;10.97;42.39;102207.53;4969609;28;45260;-54
2022/03/21 02:01:17;;;;;;;;;66.50;50.75;;;;;10.98;42.37;102218.94;4959762;28;45308;-51
2022/03/21 02:03:43;;;;;;;;;58.00;48.25;;;;;10.98;42.37;102211.94;4958928;28;46053;-53
2022/03/21 02:06:08;;;;;;;;;59.00;47.75;;;;;10.87;42.58;102190.81;4958781;28;45247;-52
2022/03/21 02:08:34;;;;;;;;;60.00;46.75;;;;;10.97;42.84;102218.06;4959065;28;45753;-54
2022/03/21 02:11:00;;;;;;;;;57.00;45.50;;;;;10.94;42.52;102204.88;4958307;28;45468;-51
2022/03/21 02:13:27;;;;;;;;;55.50;44.75;;;;;10.96;42.69;102216.28;4957633;27;45430;-54
2022/03/21 02:15:53;;;;;;;;;62.00;47.50;;;;;10.96;42.89;102207.53;4957194;28;45518;-54
2022/03/21 02:18:20;;;;;;;;;62.50;48.25;;;;;10.96;42.81;102203.13;4958877;28;45348;-54
2022/03/21 02:20:47;;;;;;;;;56.75;44.75;;;;;10.96;42.87;102203.13;4958058;28;45502;-52
2022/03/21 02:23:22;;;;;;;;;58.75;46.50;;;;;10.95;42.84;102198.75;4958729;28;45403;-54
2022/03/21 02:25:49;;;;;;;;;60.75;47.00;;;;;10.95;42.79;102203.13;4974304;28;45324;-53
2022/03/21 02:28:16;;;;;;;;;62.00;47.75;;;;;10.95;42.92;102203.13;4981536;28;45182;-54
2022/03/21 02:30:45;;;;;;;;;57.75;44.50;;;;;10.92;42.92;102201.38;4958661;28;45259;-54
2022/03/21 02:33:12;;;;;;;;;56.25;45.75;;;;;10.94;43.07;102202.22;4958264;28;46697;-53
2022/03/21 02:35:38;;;;;;;;;59.75;48.25;;;;;10.91;43.14;102190.84;4985569;28;45287;-52
2022/03/21 02:38:06;;;;;;;;;59.00;47.00;;;;;10.92;42.93;102193.47;4962321;28;45178;-50
2022/03/21 02:40:32;;;;;;;;;57.75;44.25;;;;;10.94;43.15;102198.75;4958162;28;45450;-49
2022/03/21 02:42:57;;;;;;;;;54.75;45.25;;;;;10.89;43.05;102185.53;4958236;28;45895;-53
2022/03/21 02:45:23;;;;;;;;;59.00;46.25;;;;;10.91;43.16;102186.44;4958539;28;45419;-53
2022/03/21 02:47:49;;;;;;;;;58.50;46.25;;;;;10.93;43.17;102192.59;4962986;28;45380;-52
2022/03/21 02:50:32;;;;;;;;;55.00;45.00;;;;;10.93;43.23;102189.97;4965991;28;45257;-53
2022/03/21 02:52:59;;;;;;;;;60.75;49.25;;;;;10.93;43.03;102187.34;4961223;28;45467;-54
2022/03/21 02:55:24;;;;;;;;;54.50;43.50;;;;;10.94;43.31;102186.44;4958632;28;45330;-53
2022/03/21 02:57:50;;;;;;;;;60.25;47.50;;;;;10.91;43.40;102183.81;4961908;28;45371;-52
2022/03/21 03:00:15;;;;;;;;;61.25;48.25;;;;;10.93;43.05;102183.81;4967375;28;45455;-53
2022/03/21 03:02:41;;;;;;;;;58.25;46.00;;;;;10.94;43.29;102185.59;4957730;28;45474;-53
2022/03/21 03:05:07;;;;;;;;;57.75;46.75;;;;;10.97;43.28;102194.38;4958313;28;45343;-52
2022/03/21 03:07:32;;;;;;;;;55.00;45.75;;;;;10.96;43.37;102184.72;4958098;28;45432;-51
2022/03/21 03:09:57;;;;;;;;;55.50;45.25;;;;;10.96;43.49;102192.63;4957851;28;45312;-54
2022/03/21 03:12:23;;;;;;;;;65.50;48.75;;;;;10.96;43.52;102195.25;4972685;28;46950;-54
2022/03/21 03:14:48;;;;;;;;;60.75;46.50;;;;;10.97;43.52;102194.38;4977577;28;45190;-53
2022/03/21 03:17:14;;;;;;;;;58.50;45.25;;;;;10.95;43.70;102190.84;4983634;28;45638;-53
2022/03/21 03:19:39;;;;;;;;;63.50;48.25;;;;;10.96;43.37;102190.00;4986653;28;45418;-52
2022/03/21 03:22:05;;;;;;;;;59.25;47.75;;;;;10.97;43.57;102189.13;4960331;28;46267;-53
2022/03/21 03:24:31;;;;;;;;;61.25;48.00;;;;;10.99;43.59;102189.13;4957760;28;45264;-52
2022/03/21 03:26:57;;;;;;;;;60.75;48.00;;;;;10.97;43.83;102190.84;4957755;28;45243;-51
2022/03/21 03:29:22;;;;;;;;;58.25;46.75;;;;;10.98;43.78;102193.53;4957744;28;45343;-52
2022/03/21 03:31:48;;;;;;;;;59.00;46.25;;;;;10.98;43.60;102193.53;4958814;28;45637;-53
2022/03/21 03:34:13;;;;;;;;;63.25;48.50;;;;;10.98;43.63;102196.16;4964595;28;45382;-53
2022/03/21 03:36:39;;;;;;;;;58.75;47.25;;;;;10.99;43.89;102194.38;4988081;28;45418;-53
2022/03/21 03:39:04;;;;;;;;;42.00;31.75;;;;;10.99;43.78;102199.66;4960632;28;45348;-54
2022/03/21 03:41:30;;;;;;;;;55.25;45.75;;;;;10.98;43.90;102195.25;4960264;28;45431;-50
2022/03/21 03:43:56;;;;;;;;;61.75;47.50;;;;;10.98;43.79;102196.16;4959146;28;44702;-52
2022/03/21 03:46:22;;;;;;;;;60.75;48.50;;;;;10.97;43.73;102197.00;4959132;28;45430;-53
2022/03/21 03:48:54;;;;;;;;;62.50;46.75;;;;;10.98;43.99;102198.78;4960506;28;45358;-53
2022/03/21 03:51:19;;;;;;;;;59.00;48.50;;;;;10.99;43.99;102204.91;4962610;27;45408;-52
2022/03/21 03:53:44;;;;;;;;;64.25;48.75;;;;;10.99;44.02;102202.28;4960494;28;45351;-51
2022/03/21 03:56:10;;;;;;;;;65.25;47.00;;;;;11.00;43.99;102206.69;4960729;28;45417;-53
2022/03/21 03:58:36;;;;;;;;;59.00;47.50;;;;;10.99;43.97;102216.34;4970214;28;45342;-50
2022/03/21 04:01:04;;;;;;;;;59.00;48.50;;;;;10.99;44.10;102211.06;4978089;28;48307;-53
2022/03/21 04:03:45;;;;;;;;;58.75;46.50;;;;;10.99;44.13;102210.16;4975360;28;45341;-51
2022/03/21 04:06:15;;;;;;;;;63.00;47.50;;;;;10.99;44.16;102207.53;4973437;28;45337;-52
2022/03/21 04:08:41;;;;;;;;;60.00;46.75;;;;;10.99;44.09;102211.06;4960182;28;45361;-53
2022/03/21 04:11:07;;;;;;;;;62.00;47.00;;;;;10.99;44.10;102211.06;4973564;28;45897;-52
2022/03/21 04:13:32;;;;;;;;;61.00;47.25;;;;;10.99;44.08;102212.81;4998917;28;45316;-52
2022/03/21 04:15:58;;;;;;;;;63.00;48.75;;;;;10.96;44.19;102208.41;4986331;28;45292;-53
2022/03/21 04:18:23;;;;;;;;;57.75;47.00;;;;;10.99;44.25;102211.06;4986112;28;45614;-54
2022/03/21 04:20:50;;;;;;;;;59.25;46.75;;;;;11.00;44.22;102218.06;4960021;28;46184;-52
2022/03/21 04:23:17;;;;;;;;;57.50;47.00;;;;;11.00;44.25;102222.47;4960152;28;45294;-53
2022/03/21 04:25:43;;;;;;;;;53.50;41.75;;;;;11.00;44.24;102225.09;4960170;28;45434;-54
2022/03/21 04:28:10;;;;;;;;;59.50;47.00;;;;;10.99;44.39;102228.59;4958837;28;45411;-54
2022/03/21 04:30:37;;;;;;;;;59.50;47.50;;;;;11.00;44.37;102231.22;4958867;28;46347;-52
2022/03/21 04:33:06;;;;;;;;;59.25;45.25;;;;;10.99;44.53;102228.59;4959645;28;45327;-53
2022/03/21 04:35:31;;;;;;;;;57.50;45.25;;;;;10.99;44.38;102231.22;5014252;27;45465;-54
2022/03/21 04:37:57;;;;;;;;;56.25;43.00;;;;;11.01;44.46;102237.38;4983468;28;45323;-53
2022/03/21 04:40:23;;;;;;;;;63.50;48.50;;;;;11.01;44.40;102245.28;4959718;28;46120;-54
2022/03/21 04:42:49;;;;;;;;;60.25;48.50;;;;;11.01;44.36;102237.38;4959332;28;45268;-54
2022/03/21 04:45:14;;;;;;;;;58.00;46.25;;;;;10.98;44.45;102235.59;4960147;28;45390;-53
2022/03/21 04:47:40;;;;;;;;;55.50;44.75;;;;;10.98;44.62;102235.59;4959438;28;45487;-52
2022/03/21 04:50:07;;;;;;;;;60.25;47.50;;;;;11.01;44.66;102243.50;4965888;28;45536;-52
2022/03/21 04:52:34;;;;;;;;;54.00;42.50;;;;;11.02;44.72;102240.00;4974707;27;45285;-53
2022/03/21 04:55:00;;;;;;;;;63.00;48.50;;;;;11.01;44.54;102251.41;4972637;28;45343;-52
2022/03/21 04:57:26;;;;;;;;;55.25;44.00;;;;;11.00;44.64;102248.75;4960244;28;45586;-52
2022/03/21 04:59:52;;;;;;;;;57.25;47.00;;;;;11.01;44.78;102246.13;4972332;28;46180;-53
2022/03/21 05:02:17;;;;;;;;;59.00;45.25;;;;;11.03;44.66;102247.03;4959325;28;45335;-53
2022/03/21 05:04:43;;;;;;;;;55.50;44.50;;;;;11.00;44.78;102243.50;4959862;28;45348;-52
2022/03/21 05:07:16;;;;;;;;;58.75;47.50;;;;;11.01;44.71;102251.41;4959623;28;45326;-54
2022/03/21 05:09:43;;;;;;;;;62.75;48.25;;;;;11.01;44.94;102248.78;4974132;28;47100;-53
2022/03/21 05:12:10;;;;;;;;;57.00;46.75;;;;;11.03;44.94;102248.78;4958237;28;45995;-54
2022/03/21 05:14:35;;;;;;;;;60.25;46.00;;;;;11.04;44.73;102250.53;4959720;28;45345;-54
2022/03/21 05:17:02;;;;;;;;;59.25;47.50;;;;;11.03;44.92;102257.56;4958015;28;45479;-54
2022/03/21 05:19:41;;;;;;;;;57.50;45.00;;;;;11.05;45.05;102268.97;4959288;28;45232;-54
2022/03/21 05:22:07;;;;;;;;;57.75;46.50;;;;;11.06;44.85;102267.22;4959285;28;45321;-52
2022/03/21 05:35:52;;;;;;;;;55.50;44.25;;;;;11.02;44.96;102263.69;4959178;28;45381;-54
2022/03/21 05:35:54;;;;;;;;;59.25;43.00;;;;;11.04;45.11;102261.06;4987887;27;45229;-50
2022/03/21 05:38:27;;;;;;;;;51.25;41.00;;;;;11.09;45.11;102266.38;4961258;28;45241;-52
2022/03/21 05:40:56;;;;;;;;;52.75;42.75;;;;;11.07;45.22;102266.38;4958976;28;45461;-54
2022/03/21 05:43:25;;;;;;;;;51.75;41.75;;;;;11.07;45.04;102269.00;4959147;28;45237;-52
2022/03/21 05:45:52;;;;;;;;;52.00;42.00;;;;;11.10;45.21;102270.78;4974084;27;45552;-54
2022/03/21 05:51:01;;;;;;;;;60.75;48.25;;;;;11.08;45.10;102273.41;4972075;28;45331;-52
2022/03/21 05:53:27;;;;;;;;;55.25;45.50;;;;;11.08;45.18;102276.03;4957106;28;45321;-52
2022/03/21 05:55:52;;;;;;;;;54.50;41.25;;;;;11.03;45.24;102281.25;4959392;28;45327;-54
2022/03/21 05:58:18;;;;;;;;;61.50;46.25;;;;;11.06;45.36;102286.50;4966044;28;45269;-51
2022/03/21 06:00:43;;;;;;;;;59.00;45.75;;;;;11.06;45.31;102286.50;4964503;28;45407;-50
2022/03/21 06:03:09;;;;;;;;;58.00;46.00;;;;;11.02;45.45;102286.50;4958885;28;45482;-52
2022/03/21 06:05:35;;;;;;;;;58.00;45.25;;;;;11.04;45.35;102287.38;4957684;28;45235;-52
2022/03/21 06:08:00;;;;;;;;;58.75;45.00;;;;;11.03;45.39;102293.50;4958947;27;45383;-54
2022/03/21 06:10:26;;;;;;;;;55.75;43.25;;;;;11.02;45.40;102299.66;4958550;28;45221;-51
2022/03/21 06:12:51;;;;;;;;;58.00;46.25;;;;;10.97;45.41;102294.34;4958897;28;45399;-51
2022/03/21 06:15:17;;;;;;;;;58.25;45.25;;;;;10.97;45.50;102298.69;4958929;28;45539;-54
2022/03/21 06:17:43;;;;;;;;;55.50;44.25;;;;;10.99;45.55;102300.50;4957346;28;45679;-50
2022/03/21 06:20:11;;;;;;;;;53.75;42.75;;;;;10.97;45.50;102310.13;4958481;28;46168;-50
2022/03/21 06:22:38;;;;;;;;;53.75;44.25;;;;;10.97;45.54;102306.59;4958773;28;45347;-51
2022/03/21 06:25:04;;;;;;;;;55.50;42.00;;;;;10.95;45.52;102313.59;4957524;28;45368;-58
2022/03/21 06:27:31;;;;;;;;;54.50;43.25;;;;;10.95;45.65;102311.84;4957614;28;46730;-61
2022/03/21 06:29:56;;;;;;;;;55.25;45.50;;;;;10.95;45.68;102324.13;4958529;28;45399;-61
2022/03/21 06:32:23;;;;;;;;;61.25;46.50;;;;;10.94;45.65;102317.97;4958508;28;45328;-61
2022/03/21 06:34:49;;;;;;;;;51.50;42.75;;;;;10.94;45.80;102327.63;4982330;28;45336;-58
2022/03/21 06:37:15;;;;;;;;;49.75;40.00;;;;;10.92;46.01;102326.72;4968344;28;45833;-58
2022/03/21 06:39:40;;;;;;;;;50.25;41.75;;;;;10.89;45.93;102331.09;4958417;28;45331;-58
2022/03/21 06:42:06;;;;;;;;;47.50;38.50;;;;;10.91;46.05;102335.50;4973668;28;45383;-49
2022/03/21 06:44:31;;;;;;;;;52.25;41.75;;;;;10.92;46.04;102338.13;4980891;28;45439;-51
2022/03/21 06:46:58;;;;;;;;;48.50;38.00;;;;;10.94;46.14;102348.66;4957920;28;45501;-50
2022/03/21 06:49:29;;;;;;;;;45.75;39.25;;;;;10.94;46.20;102349.53;4960203;28;47357;-58
2022/03/21 06:51:56;;;;;;;;;52.25;42.00;;;;;10.96;45.98;102349.56;4969576;28;45300;-58
2022/03/21 06:54:21;;;;;;;;;53.25;43.00;;;;;10.97;46.05;102349.56;4961488;28;45586;-57
2022/03/21 06:56:46;;;;;;;;;49.50;38.50;;;;;10.97;46.05;102346.94;4973179;28;45477;-56
2022/03/21 06:59:12;;;;;;;;;51.75;42.25;;;;;11.01;46.35;102355.75;4956687;28;45454;-56
2022/03/21 07:01:37;;;;;;;;;47.25;38.75;;;;;11.02;46.15;102347.00;4957706;28;45361;-49
2022/03/21 07:04:04;;;;;;;;;49.00;40.00;;;;;11.06;46.06;102354.91;4986149;28;45355;-47
2022/03/21 07:06:29;;;;;;;;;40.50;35.50;;;;;11.10;46.31;102355.84;4968445;28;45604;-48
2022/03/21 07:08:54;;;;;;;;;52.50;40.25;;;;;11.12;46.37;102354.09;4957409;28;45995;-49
2022/03/21 07:11:21;;;;;;;;;53.25;42.50;;;;;11.16;46.34;102363.78;4958034;28;45290;-48
2022/03/21 07:13:46;;;;;;;;;47.25;40.50;;;;;11.20;46.44;102362.94;4958236;28;45231;-48
2022/03/21 07:16:16;;;;;;;;;53.75;41.75;;;;;11.21;46.43;102351.56;4957875;28;45605;-52
2022/03/21 07:18:42;;;;;;;;;48.50;39.00;;;;;11.26;46.52;102359.50;4957818;28;47328;-59
2022/03/21 07:21:07;;;;;;;;;47.25;38.00;;;;;11.32;46.48;102358.66;4957790;28;45272;-61
2022/03/21 07:23:34;;;;;;;;;50.50;37.00;;;;;11.37;46.47;102364.81;4958010;28;45434;-56
2022/03/21 07:25:59;;;;;;;;;48.50;40.25;;;;;11.42;46.52;102367.50;4957661;28;45586;-65
2022/03/21 07:28:26;;;;;;;;;51.25;42.00;;;;;11.44;46.52;102358.75;4957636;28;47078;-62
2022/03/21 07:30:51;;;;;;;;;49.00;40.25;;;;;11.49;46.55;102370.19;4957333;28;45280;-64
2022/03/21 07:33:16;;;;;;;;;46.00;37.25;;;;;11.53;46.38;102372.00;4956519;28;45314;-64
2022/03/21 07:35:42;;;;;;;;;48.75;38.25;;;;;11.56;46.44;102368.53;4987481;28;45583;-66
2022/03/21 07:38:07;;;;;;;;;51.00;41.25;;;;;11.60;46.50;102366.78;4961331;28;46202;-65
2022/03/21 07:40:33;;;;;;;;;45.75;37.00;;;;;11.65;46.47;102372.97;4956195;28;45434;-64
2022/03/21 07:42:58;;;;;;;;;45.75;37.50;;;;;11.68;46.52;102368.63;4957630;28;45657;-64
2022/03/21 07:48:08;;;;;;;;;40.00;34.25;;;;;11.78;46.48;102366.91;4957334;28;45873;-64
2022/03/21 07:50:35;;;;;;;;;46.00;36.25;;;;;11.82;46.33;102368.72;4967610;28;45402;-63
2022/03/21 07:53:01;;;;;;;;;46.50;36.75;;;;;11.88;46.40;102373.13;4975632;28;45350;-64
2022/03/21 07:55:27;;;;;;;;;47.50;37.75;;;;;11.94;46.36;102375.78;4965855;28;45481;-65
2022/03/21 07:57:52;;;;;;;;;45.25;35.75;;;;;11.99;46.48;102379.38;4972773;28;46946;-65
2022/03/21 08:00:17;;;;;;;;;42.00;36.00;;;;;12.06;46.42;102382.03;4965014;28;45327;-65
2022/03/21 08:02:44;;;;;;;;;41.75;33.75;;;;;12.11;46.50;102386.47;4957257;28;45395;-65
2022/03/21 08:05:10;;;;;;;;;48.00;37.50;;;;;12.16;46.31;102382.13;4956185;28;45455;-66
2022/03/21 08:07:36;;;;;;;;;53.00;43.50;;;;;12.22;46.06;102377.75;4965915;28;45910;-65
2022/03/21 08:10:05;;;;;;;;;43.75;36.50;;;;;12.27;46.42;102376.88;4984922;28;45474;-65
2022/03/21 08:12:31;;;;;;;;;42.75;36.00;;;;;12.32;46.34;102376.91;4958340;28;45308;-65
2022/03/21 08:14:59;;;;;;;;;42.50;34.00;;;;;12.35;46.44;102376.91;4957172;28;45289;-64
2022/03/21 08:17:26;;;;;;;;;46.25;39.75;;;;;12.41;46.23;102379.56;4956393;28;47408;-65
2022/03/21 08:19:52;;;;;;;;;45.75;36.25;;;;;12.44;46.14;102376.06;4960069;28;45259;-64
2022/03/21 08:22:19;;;;;;;;;49.50;39.50;;;;;12.52;46.42;102393.69;4960113;28;45216;-65
2022/03/21 08:24:45;;;;;;;;;42.75;36.00;;;;;12.58;46.04;102379.66;4960064;28;45344;-65
2022/03/21 08:27:10;;;;;;;;;41.75;35.50;;;;;12.63;46.17;102392.88;4958741;28;46918;-66
2022/03/21 08:29:35;;;;;;;;;40.00;33.75;;;;;12.69;46.15;102390.22;4960110;28;45453;-65
2022/03/21 08:32:02;;;;;;;;;33.75;30.50;;;;;12.76;46.07;102386.72;4959769;28;45332;-65
2022/03/21 08:34:27;;;;;;;;;43.50;35.50;;;;;12.81;46.32;102392.03;4975812;28;45438;-65
2022/03/21 08:36:53;;;;;;;;;48.25;39.00;;;;;12.86;46.29;102382.38;4974241;28;47303;-64
2022/03/21 08:39:18;;;;;;;;;43.50;35.00;;;;;12.93;45.88;102383.25;4972547;28;45249;-64
2022/03/21 08:41:43;;;;;;;;;43.75;34.25;;;;;12.98;46.02;102384.13;4992417;28;45227;-65
2022/03/21 08:44:09;;;;;;;;;31.00;27.00;;;;;13.04;46.25;102381.50;4965432;28;45224;-64
2022/03/21 08:46:34;;;;;;;;;34.00;31.00;;;;;13.09;45.84;102389.44;4971967;28;45142;-65
2022/03/21 08:51:46;;;;;;;;;33.50;29.75;;;;;13.23;45.98;102400.03;4959999;28;45296;-65
2022/03/21 08:54:11;;;;;;;;;31.50;30.25;;;;;13.30;45.83;102388.59;4959624;28;45154;-64
2022/03/21 08:56:37;;;;;;;;;31.75;30.00;;;;;13.36;46.18;102390.34;4960215;28;45427;-65
2022/03/21 08:59:02;;;;;;;;;28.00;27.75;;;;;13.40;45.79;102385.09;4973563;28;45266;-64
2022/03/21 09:01:28;;;;;;;;;34.25;30.25;;;;;13.50;45.54;102391.28;4991300;28;45208;-65
2022/03/21 09:03:55;;;;;;;;;37.00;31.50;;;;;13.56;46.07;102386.00;4965394;28;45319;-64
2022/03/21 09:06:20;;;;;;;;;35.75;32.00;;;;;13.63;45.77;102385.13;4959564;28;46152;-65
2022/03/21 09:08:49;;;;;;;;;34.50;31.25;;;;;13.71;45.98;102381.56;4958006;28;45865;-64
2022/03/21 09:11:17;;;;;;;;;34.75;30.00;;;;;13.76;45.95;102382.44;4974593;28;45173;-65
2022/03/21 09:13:44;;;;;;;;;50.75;40.50;;;;;13.86;45.69;102385.94;4959459;28;45410;-65
2022/03/21 09:16:11;;;;;;;;;42.25;35.50;;;;;13.94;45.70;102384.19;4959293;28;45395;-64
2022/03/21 09:18:36;;;;;;;;;33.50;30.00;;;;;13.99;45.54;102385.06;4959344;28;45665;-64
2022/03/21 09:21:01;;;;;;;;;29.75;26.00;;;;;14.08;45.64;102390.31;4959355;28;45706;-64
2022/03/21 09:23:27;;;;;;;;;29.75;28.25;;;;;14.14;45.71;102379.72;4959387;28;45454;-64
2022/03/21 09:25:52;;;;;;;;;40.25;32.50;;;;;14.23;45.52;102380.59;4959224;28;45474;-66
2022/03/21 09:28:17;;;;;;;;;34.50;31.50;;;;;14.37;45.72;102383.19;4959304;28;45342;-65
2022/03/21 09:30:43;;;;;;;;;36.75;32.25;;;;;14.47;45.58;102379.59;4959148;28;45328;-65
2022/03/21 09:33:09;;;;;;;;;39.75;32.75;;;;;14.58;45.29;102375.13;4962155;28;45315;-66
2022/03/21 09:35:34;;;;;;;;;40.00;31.75;;;;;14.67;45.57;102371.59;5005220;28;45437;-65
2022/03/21 09:38:02;;;;;;;;;37.50;32.75;;;;;14.81;45.07;102376.81;4990321;28;45299;-65
2022/03/21 09:40:28;;;;;;;;;35.00;29.75;;;;;14.91;45.55;102373.22;4970143;28;45276;-66
2022/03/21 09:42:54;;;;;;;;;36.00;31.00;;;;;15.04;45.45;102373.13;4959108;28;45356;-65
2022/03/21 09:45:19;;;;;;;;;33.50;31.25;;;;;15.15;45.25;102371.28;4958958;28;46107;-65
2022/03/21 09:50:36;;;;;;;;;38.25;31.25;;;;;15.43;45.04;102365.78;4969090;28;45296;-65
2022/03/21 09:53:05;;;;;;;;;31.50;28.75;;;;;15.58;45.21;102370.94;4961518;28;45470;-64
2022/03/21 09:55:31;;;;;;;;;31.75;29.00;;;;;15.75;45.13;102361.97;4959294;28;45316;-64
2022/03/21 09:57:57;;;;;;;;;29.00;27.50;;;;;15.92;45.29;102362.69;4970805;28;45523;-66
2022/03/21 10:00:23;;;;;;;;;32.75;28.50;;;;;16.14;45.22;102357.13;4958792;28;45317;-66
2022/03/21 10:02:48;;;;;;;;;38.25;28.25;;;;;16.33;44.92;102349.81;4958797;28;45340;-66
2022/03/21 10:05:52;;;;;;;;;28.50;26.25;;;;;16.57;45.03;102351.28;4958792;28;46130;-65
2022/03/21 10:08:28;;;;;;;;;30.50;27.50;;;;;16.72;44.96;102342.22;5068878;28;45497;-66
2022/03/21 10:11:05;;;;;;;;;22.75;19.50;;;;;16.85;44.66;102345.56;5064939;28;45494;-66
2022/03/21 10:13:32;;;;;;;;;28.75;26.50;;;;;16.98;44.61;102346.31;5029731;28;45685;-66
2022/03/21 10:16:11;;;;;;;;;24.25;20.25;;;;;17.10;44.63;102347.00;4958578;28;45282;-66
2022/03/21 10:18:38;;;;;;;;;25.00;23.75;;;;;17.18;44.29;102340.66;4957325;28;45872;-66
2022/03/21 10:21:12;;;;;;;;;26.25;24.50;;;;;17.33;44.25;102349.28;4957289;28;45346;-65
2022/03/21 10:23:37;;;;;;;;;20.75;18.25;;;;;17.45;44.17;102341.09;4958594;28;45371;-65
2022/03/21 10:26:25;;;;;;;;;24.75;22.00;;;;;17.59;44.03;102337.31;4958670;28;45330;-66
2022/03/21 10:28:54;;;;;;;;;25.00;22.00;;;;;17.63;43.92;102318.59;5046793;28;45370;-66
2022/03/21 10:31:36;;;;;;;;;25.50;18.75;;;;;17.89;43.90;102329.69;4964073;28;45470;-67
2022/03/21 10:34:07;;;;;;;;;22.00;18.00;;;;;18.03;44.08;102314.34;4957303;28;45276;-68
2022/03/21 10:36:33;;;;;;;;;17.25;15.25;;;;;18.16;43.88;102326.47;4996086;28;46345;-65
2022/03/21 10:39:12;;;;;;;;;26.50;21.00;;;;;18.31;44.00;102322.63;4958440;28;45308;-66
2022/03/21 10:41:39;;;;;;;;;14.00;12.25;;;;;18.47;43.65;102315.16;4975266;28;45234;-66
2022/03/21 10:44:06;;;;;;;;;12.75;12.25;;;;;18.64;43.67;102313.88;4966691;28;45566;-66
2022/03/21 10:46:31;;;;;;;;;17.00;14.75;;;;;18.81;43.38;102318.84;5042885;28;46428;-66
2022/03/21 10:49:08;;;;;;;;;17.75;15.25;;;;;18.98;43.36;102321.09;4966065;28;45283;-67
2022/03/21 10:51:56;;;;;;;;;13.75;11.50;;;;;19.16;43.16;102309.13;4971611;28;45308;-67
2022/03/21 10:54:43;;;;;;;;;12.00;12.00;;;;;19.35;43.10;102306.88;4958076;28;45490;-66
2022/03/21 10:57:32;;;;;;;;;19.25;17.00;;;;;19.51;43.37;102310.00;4958398;28;47246;-67
2022/03/21 11:00:23;;;;;;;;;16.25;15.50;;;;;19.70;43.06;102313.03;4958059;28;45321;-66
2022/03/21 11:02:51;;;;;;;;;17.75;13.50;;;;;19.87;42.65;102309.06;4958128;28;45357;-66
2022/03/21 11:05:18;;;;;;;;;11.75;10.50;;;;;20.04;42.59;102304.09;4958122;28;45287;-66
2022/03/21 11:07:45;;;;;;;;;12.75;12.75;;;;;20.23;43.12;102304.41;4957809;28;47831;-66
2022/03/21 11:10:11;;;;;;;;;13.00;11.00;;;;;20.49;43.03;102301.88;4957761;28;45474;-67
2022/03/21 11:12:39;;;;;;;;;11.25;11.00;;;;;20.80;43.13;102299.13;4973003;28;45508;-68
2022/03/21 11:15:06;;;;;;;;;11.00;11.00;;;;;21.23;43.31;102296.81;4956604;28;45383;-68
2022/03/21 11:17:33;;;;;;;;;11.00;11.00;;;;;21.69;43.19;102289.84;4957364;28;47205;-64
2022/03/21 11:20:01;;;;;;;;;12.75;11.00;;;;;22.20;43.60;102296.00;4957682;28;45400;-66
2022/03/21 11:22:28;;;;;;;;;12.00;12.00;;;;;22.70;43.22;102289.59;4958190;28;45254;-66
2022/03/21 11:24:54;;;;;;;;;13.25;11.00;;;;;23.24;43.16;102289.13;4956428;28;45368;-65
2022/03/21 11:27:50;;;;;;;;;13.75;11.25;;;;;23.82;43.31;102303.59;4957666;28;45403;-65
2022/03/21 11:30:15;;;;;;;;;14.25;13.25;;;;;24.41;43.15;102293.69;4957560;28;45478;-64
2022/03/21 11:33:12;;;;;;;;;14.25;13.00;;;;;24.98;42.84;102290.03;4957629;28;45319;-64